KTTS

Details ICAO KTTS
Name NASA Shuttle Landing Facility
Region United States
Timezone America/New_York (UTC-5.0)
Plans Departing 25
Arriving 19
Stats Elevation 10 ft / 3 m (AMSL)
Location 28.614891° -80.694371°
Runways 1
Magnetic Variation 6.814° W
Sunrise 2017-12-10 12:06:20 UTC / 2017-12-10 07:06:20 Local
Sunset 2017-12-10 22:27:57 UTC / 2017-12-10 17:27:57 Local
Advertisement - Login to hide

Runways

ID Width Length Bearing (true) Bearing (mag) Surface Threshold Offset Overrun Length
15 300 ft / 91 m 15,035 ft / 4,583 m 150.12° 156.93° Concrete 0 ft / 0 m 1,000 ft / 305 m
33 300 ft / 91 m 15,035 ft / 4,583 m 330.13° 336.94° Concrete 0 ft / 0 m 1,000 ft / 305 m

Map

Weather


0- 5 10 15 20 25 30 35+ Temperature / ° C

Clouds and Precipitation
Forecast for 2017-12-11 00:00 UTC. Updated an hour ago

Ground ~20,000 ft ~40,000 ft Winds

METAR

KTTS 102358Z AUTO 33003KT 10SM CLR 07/05 A3027 RMK AO2 SLP255 T00670049 10135 20067 52013 $

TAF

Not found

Frequencies

Unicom 123.60 MHz CTAF
Tower 128.55 MHz TWR
Ground 121.75 MHz GND
Approach 134.95 MHz ORLANDO APP/DEP
Warning: Do not use this data for real-world aviation or navigation. No guarantee of current accuracy is given.